Time;durP1;ratioP1;P1;durP2;ratioP2;P2;SDS_P1;SDS_P2;PMS_P1;PMS_P2;Temp;Humidity;BMP_temperature;BMP_pressure;BME280_temperature;BME280_humidity;BME280_pressure;Samples;Min_cycle;Max_cycle;Signal;HPM_P1;HPM_P2
2021/10/18 00:04:55;;;;;;;13.90;5.60;;;;;;;9.59;96.21;101205.59;5087494;57;1139109;-79
2021/10/18 00:10:03;;;;;;;11.43;6.07;;;;;;;9.59;96.48;101207.77;5055964;57;1138539;-81
2021/10/18 00:15:11;;;;;;;8.53;5.30;;;;;;;9.57;96.39;101211.44;5091209;57;1139077;-83
2021/10/18 00:20:18;;;;;;;8.50;4.50;;;;;;;9.53;96.63;101210.30;5064355;58;1137188;-77
2021/10/18 00:25:25;;;;;;;9.53;5.13;;;;;;;9.51;97.35;101206.05;5067962;57;1137542;-79
2021/10/18 00:30:30;;;;;;;17.20;6.63;;;;;;;9.50;97.54;101213.59;5066821;57;1137377;-82
2021/10/18 00:35:36;;;;;;;9.10;5.13;;;;;;;9.49;97.65;101211.90;5085555;57;1139522;-77
2021/10/18 00:40:41;;;;;;;12.17;5.87;;;;;;;9.49;97.68;101214.06;5140242;56;1137340;-79
2021/10/18 00:45:47;;;;;;;14.67;7.03;;;;;;;9.51;97.75;101213.97;5098011;57;1139045;-80
2021/10/18 00:50:56;;;;;;;12.47;7.93;;;;;;;9.51;98.00;101206.91;5066944;57;1139227;-79
2021/10/18 00:56:02;;;;;;;13.97;7.03;;;;;;;9.52;98.53;101209.07;5075491;57;1139126;-77
2021/10/18 01:01:09;;;;;;;11.93;6.53;;;;;;;9.50;98.87;101210.48;5205571;56;1139296;-75
2021/10/18 01:06:15;;;;;;;17.87;7.57;;;;;;;9.48;99.15;101217.65;5056497;57;1139115;-77
2021/10/18 01:11:21;;;;;;;13.87;8.67;;;;;;;9.50;99.10;101208.31;5058311;57;1139092;-80
2021/10/18 01:16:27;;;;;;;13.17;6.20;;;;;;;9.49;99.31;101215.86;5071231;57;1139137;-81
2021/10/18 01:21:33;;;;;;;11.73;6.60;;;;;;;9.51;99.58;101213.97;5046898;58;1139154;-80
2021/10/18 01:26:41;;;;;;;15.03;7.73;;;;;;;9.52;99.73;101217.84;5075968;57;1139453;-82
2021/10/18 01:31:47;;;;;;;17.00;7.90;;;;;;;9.55;99.49;101218.60;5054799;57;1139442;-77
2021/10/18 01:36:55;;;;;;;17.87;7.13;;;;;;;9.56;99.43;101222.94;5084507;57;1139402;-79
2021/10/18 01:42:02;;;;;;;15.07;7.93;;;;;;;9.57;99.64;101227.28;5139887;56;1136941;-80
2021/10/18 01:47:08;;;;;;;11.50;7.50;;;;;;;9.55;99.94;101225.20;5062342;57;1137091;-80
2021/10/18 01:52:14;;;;;;;14.03;9.23;;;;;;;9.55;100.00;101230.02;5050591;57;1137080;-80
2021/10/18 01:57:20;;;;;;;15.77;9.30;;;;;;;9.53;100.00;101223.98;5039158;57;1139370;-79
2021/10/18 02:02:26;;;;;;;15.37;8.20;;;;;;;9.52;100.00;101228.41;5070305;57;1140148;-79
2021/10/18 02:07:32;;;;;;;11.33;6.90;;;;;;;9.53;100.00;101237.18;5061398;57;1139049;-78
2021/10/18 02:12:39;;;;;;;14.73;8.10;;;;;;;9.56;100.00;101234.83;5038640;57;1139303;-79
2021/10/18 02:17:45;;;;;;;13.70;7.60;;;;;;;9.57;100.00;101238.70;5076246;57;1139079;-77
2021/10/18 02:22:52;;;;;;;15.67;8.23;;;;;;;9.58;100.00;101240.39;5180551;56;1139113;-77
2021/10/18 02:27:58;;;;;;;15.97;9.60;;;;;;;9.56;100.00;101237.00;5082487;57;1139327;-78
2021/10/18 02:33:04;;;;;;;15.47;8.80;;;;;;;9.53;100.00;101242.46;5053002;57;1139339;-85
2021/10/18 02:38:10;;;;;;;13.33;8.40;;;;;;;9.54;100.00;101242.84;5064842;57;1139160;-78
2021/10/18 02:43:16;;;;;;;14.57;7.87;;;;;;;9.59;100.00;101238.13;5049001;57;1139325;-78
2021/10/18 02:48:21;;;;;;;11.03;7.70;;;;;;;9.63;100.00;101247.53;5098083;57;1139073;-85
2021/10/18 02:53:29;;;;;;;15.47;9.20;;;;;;;9.63;100.00;101249.33;5051782;57;1139088;-79
2021/10/18 02:58:35;;;;;;;17.30;10.13;;;;;;;9.62;100.00;101249.83;5059124;57;1139136;-82
2021/10/18 03:03:41;;;;;;;16.77;8.33;;;;;;;9.61;100.00;101256.05;5050166;57;1141229;-79
2021/10/18 03:08:47;;;;;;;17.27;9.50;;;;;;;9.59;100.00;101259.73;5183340;56;1137049;-80
2021/10/18 03:13:53;;;;;;;15.47;9.77;;;;;;;9.59;100.00;101260.58;5048842;57;1136919;-80
2021/10/18 03:19:00;;;;;;;12.93;8.10;;;;;;;9.60;100.00;101248.23;5191099;56;1141360;-80
2021/10/18 03:24:06;;;;;;;19.67;10.73;;;;;;;9.59;100.00;101252.66;5089042;57;1141110;-82
2021/10/18 03:29:13;;;;;;;20.43;10.50;;;;;;;9.58;100.00;101264.63;5053239;58;1143334;-82
2021/10/18 03:34:19;;;;;;;18.73;10.07;;;;;;;9.59;100.00;101264.55;5063652;57;1143694;-80
2021/10/18 03:39:25;;;;;;;14.90;10.10;;;;;;;9.60;100.00;101266.71;5058176;57;1143347;-78
2021/10/18 03:44:32;;;;;;;17.47;9.30;;;;;;;9.64;100.00;101276.12;5077023;57;1143480;-78
2021/10/18 03:49:39;;;;;;;18.13;8.97;;;;;;;9.66;100.00;101269.80;5050918;57;1141101;-79
2021/10/18 03:54:44;;;;;;;20.00;10.67;;;;;;;9.60;100.00;101270.67;5059337;57;1141128;-77
2021/10/18 03:59:51;;;;;;;22.00;10.03;;;;;;;9.66;100.00;101284.80;5196589;56;1143414;-79
2021/10/18 04:04:56;;;;;;;28.23;12.17;;;;;;;9.63;100.00;101281.88;5033965;57;1143321;-78
2021/10/18 04:10:02;;;;;;;21.77;11.80;;;;;;;9.61;100.00;101292.19;5177921;56;1143313;-77
2021/10/18 04:15:08;;;;;;;23.27;11.47;;;;;;;9.49;100.00;101293.28;5069237;57;1143315;-77
2021/10/18 04:20:14;;;;;;;21.00;12.30;;;;;;;9.51;100.00;101309.03;5198983;56;1143677;-80
2021/10/18 04:25:21;;;;;;;13.80;8.43;;;;;;;9.55;100.00;101311.03;5090785;56;1143229;-82
2021/10/18 04:30:27;;;;;;;14.00;8.63;;;;;;;9.58;100.00;101320.94;5250739;55;1141103;-74
2021/10/18 04:35:32;;;;;;;14.17;8.60;;;;;;;9.54;100.00;101327.34;5157728;56;1141500;-80
2021/10/18 04:40:38;;;;;;;13.93;7.17;;;;;;;9.52;100.00;101329.22;5074167;57;1141159;-78
2021/10/18 04:45:44;;;;;;;12.83;7.47;;;;;;;9.52;100.00;101333.19;5066552;57;1141245;-78
2021/10/18 04:50:50;;;;;;;13.03;8.63;;;;;;;9.52;100.00;101330.07;5063899;57;1141592;-76
2021/10/18 04:55:56;;;;;;;13.20;8.20;;;;;;;9.51;100.00;101338.94;5067530;57;1141126;-80
2021/10/18 05:01:02;;;;;;;17.97;8.57;;;;;;;9.50;100.00;101347.80;5191240;55;1141272;-78
2021/10/18 05:06:08;;;;;;;14.80;8.63;;;;;;;9.53;100.00;101347.62;5085004;57;1141124;-80
2021/10/18 05:11:16;;;;;;;15.17;7.30;;;;;;;9.51;100.00;101346.00;5063853;57;1141151;-80
2021/10/18 05:16:22;;;;;;;18.57;8.47;;;;;;;9.52;100.00;101355.16;5078440;57;1141262;-77
2021/10/18 05:21:28;;;;;;;17.50;7.97;;;;;;;9.59;100.00;101359.62;5109157;57;1141083;-78
2021/10/18 05:26:34;;;;;;;5.53;3.73;;;;;;;9.62;100.00;101371.33;5009073;57;1141416;-78
2021/10/18 05:31:39;;;;;;;7.40;2.90;;;;;;;9.59;100.00;101372.82;5036859;57;1139062;-78
2021/10/18 05:36:45;;;;;;;2.73;2.37;;;;;;;9.53;100.00;101377.98;5093896;57;1139060;-80
2021/10/18 05:41:51;;;;;;;5.83;2.80;;;;;;;9.53;100.00;101388.55;5094728;57;1139024;-75
2021/10/18 05:46:57;;;;;;;6.93;2.80;;;;;;;9.57;100.00;101393.66;5096405;57;1139221;-77
2021/10/18 05:52:04;;;;;;;4.00;3.43;;;;;;;9.55;100.00;101395.06;5216713;56;1139069;-77
2021/10/18 05:57:10;;;;;;;5.80;2.83;;;;;;;9.52;100.00;101397.41;5075816;57;1139108;-82
2021/10/18 06:02:16;;;;;;;5.70;2.50;;;;;;;9.49;100.00;101402.87;5186711;56;1139117;-77
2021/10/18 06:07:22;;;;;;;3.53;2.93;;;;;;;9.49;100.00;101409.47;5096119;57;1139070;-79
2021/10/18 06:12:28;;;;;;;4.77;2.87;;;;;;;9.51;100.00;101408.91;5081713;57;1139056;-78
2021/10/18 06:17:35;;;;;;;6.73;2.33;;;;;;;9.60;100.00;101408.86;5065630;57;1139134;-82
2021/10/18 06:22:41;;;;;;;6.67;2.20;;;;;;;9.62;100.00;101418.02;5182624;56;1139128;-80
2021/10/18 06:27:46;;;;;;;10.80;2.73;;;;;;;9.53;100.00;101438.72;5069819;57;1139216;-81
2021/10/18 06:32:53;;;;;;;6.23;3.50;;;;;;;9.53;100.00;101438.72;5031973;57;1141147;-79
2021/10/18 06:37:58;;;;;;;15.57;4.90;;;;;;;9.53;100.00;101444.47;5057452;56;1137211;-81
2021/10/18 06:43:04;;;;;;;15.87;6.40;;;;;;;9.49;100.00;101451.72;5181726;56;1139299;-82
2021/10/18 06:48:11;;;;;;;10.60;3.87;;;;;;;9.44;100.00;101445.88;5083113;57;1139092;-83
2021/10/18 06:53:30;;;;;;;12.60;6.20;;;;;;;9.53;100.00;101455.89;5140038;56;1139007;-80
2021/10/18 06:58:27;;;;;;;18.57;12.90;;;;;;;9.56;100.00;101464.58;5088572;57;1139037;-78
2021/10/18 07:03:33;;;;;;;27.30;18.07;;;;;;;9.59;100.00;101463.09;5051503;57;1141475;-77
2021/10/18 07:08:38;;;;;;;20.63;15.70;;;;;;;9.56;100.00;101460.61;5067747;57;1141273;-80
2021/10/18 07:13:44;;;;;;;18.43;8.23;;;;;;;9.50;100.00;101464.45;5055608;57;1141184;-80
2021/10/18 07:18:49;;;;;;;13.30;5.93;;;;;;;9.51;100.00;101466.16;5139139;56;1139264;-76
2021/10/18 07:23:58;;;;;;;8.38;2.47;;;;;;;9.53;100.00;101474.84;5051144;57;1139157;-75
2021/10/18 07:29:03;;;;;;;8.95;3.10;;;;;;;9.55;100.00;101482.68;5056911;57;1137048;-80
2021/10/18 07:34:17;;;;;;;2.87;1.77;;;;;;;9.59;100.00;101486.85;5209295;56;1136989;-82
2021/10/18 07:39:27;;;;;;;7.90;2.63;;;;;;;9.59;100.00;101485.53;5054131;57;1136992;-79
2021/10/18 07:44:33;;;;;;;4.40;2.07;;;;;;;9.58;100.00;101499.67;5187699;56;1136934;-78
2021/10/18 07:49:42;;;;;;;3.93;3.07;;;;;;;9.59;100.00;101508.84;5065065;57;1136916;-75
2021/10/18 07:54:52;;;;;;;4.43;2.73;;;;;;;9.56;100.00;101509.47;5197939;56;1135124;-76
2021/10/18 07:59:54;;;;;;;2.70;2.17;;;;;;;9.56;100.00;101512.97;5060922;57;1260857;-77
2021/10/18 08:05:00;;;;;;;11.70;5.10;;;;;;;9.56;100.00;101513.44;5191802;56;1139050;-88
2021/10/18 08:10:08;;;;;;;4.62;3.20;;;;;;;9.63;100.00;101506.38;4981797;58;1141250;-91
2021/10/18 08:15:14;;;;;;;9.47;6.57;;;;;;;9.68;100.00;101503.00;5000300;58;1139225;-90
2021/10/18 08:20:21;;;;;;;10.50;4.37;;;;;;;9.69;100.00;101498.11;4971424;58;1139071;-91
2021/10/18 08:25:26;;;;;;;8.73;5.07;;;;;;;9.71;100.00;101496.70;4997688;58;1141359;-88
2021/10/18 08:30:32;;;;;;;9.53;5.67;;;;;;;9.72;100.00;101490.48;5138746;56;1139032;-88
2021/10/18 08:35:38;;;;;;;18.43;8.30;;;;;;;9.75;100.00;101512.76;5054349;57;1139128;-90
2021/10/18 08:46:01;;;;;;;20.27;10.80;;;;;;;9.85;100.00;101517.41;5158290;56;1143429;-91
2021/10/18 08:51:06;;;;;;;29.33;14.40;;;;;;;9.85;100.00;101524.01;5179226;56;1143304;-89
2021/10/18 08:56:12;;;;;;;37.30;17.53;;;;;;;9.83;100.00;101517.11;5108713;57;1143447;-90
2021/10/18 09:01:18;;;;;;;34.60;18.67;;;;;;;9.82;100.00;101516.73;4970296;58;1143296;-88
2021/10/18 09:06:24;;;;;;;30.73;17.70;;;;;;;9.80;100.00;101518.14;5073412;57;1143111;-88
2021/10/18 09:11:31;;;;;;;26.80;15.73;;;;;;;9.84;100.00;101520.98;5083623;57;1143179;-89
2021/10/18 09:16:40;;;;;;;25.67;14.67;;;;;;;9.84;100.00;101523.62;5013852;58;1143450;-88
2021/10/18 09:21:56;;;;;;;33.77;17.67;;;;;;;9.90;100.00;101533.47;5052373;58;1143340;-89
2021/10/18 09:27:06;;;;;;;27.63;17.77;;;;;;;9.93;100.00;101536.76;5052517;57;1143474;-90
2021/10/18 09:32:20;;;;;;;27.67;16.47;;;;;;;9.92;100.00;101527.63;5048241;58;1143652;-92
2021/10/18 09:37:25;;;;;;;41.77;21.93;;;;;;;9.93;100.00;101535.94;5058978;57;1143107;-90
2021/10/18 09:42:31;;;;;;;22.97;15.20;;;;;;;9.88;100.00;101530.45;5129985;56;1143321;-87
2021/10/18 10:53:00;;;;;;;27.73;16.77;;;;;;;10.07;100.00;101538.62;4979584;58;1145553;-91
2021/10/18 10:58:26;;;;;;;27.97;15.73;;;;;;;10.11;100.00;101534.36;4995711;58;1145318;-91
2021/10/18 11:03:40;;;;;;;29.87;17.70;;;;;;;10.10;100.00;101528.69;4947268;59;1145511;-88
2021/10/18 11:08:48;;;;;;;25.80;14.90;;;;;;;10.11;100.00;101522.46;4987232;58;1145282;-91
2021/10/18 11:14:01;;;;;;;28.83;15.63;;;;;;;10.14;100.00;101529.36;5006007;58;1143284;-94
2021/10/18 11:19:06;;;;;;;22.60;15.10;;;;;;;10.17;100.00;101530.51;5023225;58;1143197;-92
2021/10/18 11:24:12;;;;;;;28.20;15.33;;;;;;;10.21;100.00;101522.34;4999846;58;1143243;-92
2021/10/18 11:29:19;;;;;;;27.70;16.63;;;;;;;10.26;100.00;101524.69;5055064;57;1143092;-92
2021/10/18 11:34:27;;;;;;;23.20;13.23;;;;;;;10.29;100.00;101517.91;5205586;56;1143103;-92
2021/10/18 11:39:34;;;;;;;31.57;18.23;;;;;;;10.24;100.00;101493.52;5089277;57;1143395;-88
2021/10/18 11:44:55;;;;;;;28.27;16.23;;;;;;;10.23;100.00;101499.78;5214925;56;1143283;-91
2021/10/18 11:50:26;;;;;;;33.03;17.53;;;;;;;10.25;100.00;101512.88;5055394;57;1143183;-91
2021/10/18 11:55:35;;;;;;;25.13;15.97;;;;;;;10.17;100.00;101502.28;5199958;56;1144034;-90
2021/10/18 12:00:43;;;;;;;30.00;17.73;;;;;;;10.23;100.00;101509.03;5111617;57;1141127;-92
2021/10/18 12:05:55;;;;;;;28.70;17.93;;;;;;;10.20;100.00;101500.81;5060021;57;1145372;-90
2021/10/18 12:11:05;;;;;;;25.13;15.37;;;;;;;10.21;100.00;101494.59;5075760;57;1145292;-91
2021/10/18 12:16:25;;;;;;;23.07;15.33;;;;;;;10.25;100.00;101481.16;5037146;57;1145511;-90
2021/10/18 12:21:39;;;;;;;23.03;16.03;;;;;;;10.24;100.00;101486.91;5044833;57;1145301;-89
2021/10/18 12:26:48;;;;;;;24.57;17.17;;;;;;;10.19;100.00;101486.36;5068616;57;1145542;-94
2021/10/18 12:32:03;;;;;;;23.40;16.43;;;;;;;10.18;100.00;101482.87;5072275;57;1145326;-90
2021/10/18 12:37:15;;;;;;;23.23;14.60;;;;;;;10.23;100.00;101492.67;5208314;56;1145335;-88
2021/10/18 12:42:33;;;;;;;29.03;19.77;;;;;;;10.29;100.00;101493.25;5088319;57;1145467;-90
2021/10/18 12:47:43;;;;;;;24.97;17.53;;;;;;;10.29;100.00;101490.14;5077325;57;1145277;-91
2021/10/18 12:53:02;;;;;;;21.03;14.20;;;;;;;10.35;100.00;101486.28;5075415;57;1145298;-89
2021/10/18 12:58:27;;;;;;;25.57;16.63;;;;;;;10.40;100.00;101491.64;5096237;57;1145280;-90
2021/10/18 13:03:31;;;;;;;23.83;14.77;;;;;;;10.39;100.00;101489.95;5134475;56;1145298;-92
2021/10/18 13:08:37;;;;;;;23.70;16.40;;;;;;;10.36;100.00;101474.77;5042880;57;1145296;-90
2021/10/18 13:13:47;;;;;;;24.43;15.93;;;;;;;10.45;100.00;101475.03;5076056;57;1145537;-89
2021/10/18 13:18:51;;;;;;;23.77;15.67;;;;;;;10.47;100.00;101473.63;5083630;57;1145336;-91
2021/10/18 13:23:57;;;;;;;25.60;14.73;;;;;;;10.54;100.00;101473.13;5081273;57;1145235;-91
2021/10/18 13:29:02;;;;;;;26.67;17.00;;;;;;;10.56;100.00;101485.79;5061318;57;1145269;-89
2021/10/18 13:34:08;;;;;;;37.90;17.90;;;;;;;10.61;100.00;101480.70;5083574;57;1145139;-85
2021/10/18 13:39:14;;;;;;;27.63;15.20;;;;;;;10.69;100.00;101482.41;5092379;57;1145368;-84
2021/10/18 13:44:21;;;;;;;26.17;17.90;;;;;;;10.76;100.00;101473.97;5197589;56;1145421;-83
2021/10/18 13:49:27;;;;;;;23.73;14.30;;;;;;;10.78;100.00;101476.05;5073939;57;1143269;-83
2021/10/18 13:54:34;;;;;;;20.37;14.60;;;;;;;10.81;100.00;101471.89;5062800;57;1144409;-83
2021/10/18 13:59:41;;;;;;;27.83;15.43;;;;;;;10.83;100.00;101479.73;5057129;57;1143191;-83
2021/10/18 14:04:48;;;;;;;28.63;15.83;;;;;;;10.85;100.00;101479.98;5079007;57;1143267;-82
2021/10/18 14:09:54;;;;;;;26.70;16.97;;;;;;;10.89;100.00;101477.53;5086527;57;1143443;-82
2021/10/18 14:14:59;;;;;;;37.70;17.40;;;;;;;10.91;100.00;101470.82;5102407;57;1143340;-82
2021/10/18 14:20:08;;;;;;;26.53;16.20;;;;;;;10.92;100.00;101470.73;5101046;57;1143214;-82
2021/10/18 14:25:14;;;;;;;23.07;13.03;;;;;;;10.97;100.00;101470.44;5073792;57;1143510;-82
2021/10/18 14:30:20;;;;;;;23.37;13.40;;;;;;;11.00;100.00;101469.41;5061191;57;1143239;-82
2021/10/18 14:35:26;;;;;;;27.87;13.90;;;;;;;11.03;100.00;101470.03;5050826;57;1143367;-82
2021/10/18 14:40:32;;;;;;;17.53;11.53;;;;;;;11.05;100.00;101476.08;5074942;57;1143165;-82
2021/10/18 14:45:37;;;;;;;42.93;28.43;;;;;;;11.05;100.00;101485.82;5050892;57;1142838;-82
2021/10/18 14:50:44;;;;;;;604.10;361.67;;;;;;;11.05;100.00;101483.17;5198689;56;1143160;-82
2021/10/18 14:55:52;;;;;;;92.73;51.17;;;;;;;11.04;100.00;101485.44;5088027;57;1147469;-86
2021/10/18 15:00:57;;;;;;;84.17;50.30;;;;;;;11.06;100.00;101478.25;5094049;57;1143036;-84
2021/10/18 15:06:03;;;;;;;49.93;26.33;;;;;;;11.03;100.00;101485.06;5082041;56;1143393;-84
2021/10/18 15:11:09;;;;;;;78.10;35.83;;;;;;;11.03;100.00;101485.06;5228494;55;1142694;-82
2021/10/18 15:16:15;;;;;;;197.17;125.57;;;;;;;11.00;100.00;101478.16;5127343;56;1141076;-81
2021/10/18 15:21:21;;;;;;;210.33;125.90;;;;;;;11.00;100.00;101470.73;5212122;55;1145352;-81
2021/10/18 15:26:27;;;;;;;204.90;114.07;;;;;;;10.98;100.00;101469.97;5139223;56;1149598;-83
2021/10/18 15:31:33;;;;;;;125.53;67.87;;;;;;;10.99;100.00;101469.02;5071445;57;1149617;-82
2021/10/18 15:36:38;;;;;;;138.57;85.28;;;;;;;10.98;100.00;101471.30;5144082;57;1148377;-80
2021/10/18 15:41:44;;;;;;;33.53;18.98;;;;;;;10.93;100.00;101467.61;5064794;57;1147927;-82
2021/10/18 15:46:50;;;;;;;45.30;24.67;;;;;;;10.92;100.00;101465.91;5183600;56;1145231;-80
2021/10/18 15:51:56;;;;;;;36.33;19.63;;;;;;;10.92;100.00;101471.20;5102852;56;1145353;-81
2021/10/18 15:57:04;;;;;;;37.70;18.53;;;;;;;10.98;100.00;101473.94;5059439;57;1145589;-85
2021/10/18 16:02:10;;;;;;;231.23;103.20;;;;;;;11.03;100.00;101470.03;5046606;57;1145645;-83
2021/10/18 16:07:16;;;;;;;306.87;137.87;;;;;;;11.03;100.00;101464.73;5266524;55;1149507;-82
2021/10/18 16:12:22;;;;;;;199.10;94.80;;;;;;;11.04;100.00;101457.64;5074824;57;1149598;-82
2021/10/18 16:17:28;;;;;;;71.83;36.83;;;;;;;11.04;100.00;101453.67;5228803;55;1147715;-80
2021/10/18 16:22:34;;;;;;;79.53;43.47;;;;;;;10.96;100.00;101459.48;5061984;56;1145555;-78
2021/10/18 16:27:41;;;;;;;112.13;47.77;;;;;;;10.92;100.00;101463.26;5216913;55;1145113;-80
2021/10/18 16:32:47;;;;;;;80.80;42.27;;;;;;;10.91;100.00;101467.70;5138929;56;1147408;-79
2021/10/18 16:37:53;;;;;;;116.83;57.73;;;;;;;10.89;100.00;101459.48;5224811;56;1145258;-80
2021/10/18 16:42:59;;;;;;;41.67;25.77;;;;;;;10.85;100.00;101456.17;5239057;55;1147379;-82
2021/10/18 16:48:05;;;;;;;44.00;21.80;;;;;;;10.81;100.00;101466.60;5218495;55;1145316;-80
2021/10/18 16:53:13;;;;;;;93.10;44.37;;;;;;;10.76;100.00;101464.70;5052079;57;1146297;-80
2021/10/18 16:58:18;;;;;;;63.80;24.30;;;;;;;10.66;100.00;101447.73;5114096;57;1145322;-81
2021/10/18 17:03:24;;;;;;;78.27;33.37;;;;;;;10.70;100.00;101447.88;5140339;56;1145278;-80
2021/10/18 17:08:30;;;;;;;28.32;12.07;;;;;;;10.70;100.00;101457.14;5225242;56;1145243;-80
2021/10/18 17:13:36;;;;;;;32.07;15.17;;;;;;;10.71;100.00;101477.36;5126290;57;1145257;-80
2021/10/18 17:18:41;;;;;;;30.40;12.27;;;;;;;10.68;100.00;101481.55;5180689;56;1145404;-78
2021/10/18 17:23:49;;;;;;;58.87;19.80;;;;;;;10.68;100.00;101476.27;5120540;56;1145265;-79
2021/10/18 17:28:55;;;;;;;124.37;50.63;;;;;;;10.68;100.00;101470.13;5153465;56;1145510;-79
2021/10/18 17:34:01;;;;;;;32.87;14.93;;;;;;;10.68;100.00;101462.19;5111140;56;1147412;-81
2021/10/18 17:39:07;;;;;;;48.63;21.07;;;;;;;10.70;100.00;101473.02;5231105;55;1146336;-80
2021/10/18 17:44:13;;;;;;;25.40;13.90;;;;;;;10.71;100.00;101469.43;5130682;56;1145427;-81
2021/10/18 17:49:19;;;;;;;43.97;20.50;;;;;;;10.69;100.00;101455.48;5141762;56;1145387;-82
2021/10/18 17:54:25;;;;;;;40.97;18.43;;;;;;;10.71;100.00;101462.81;5075519;57;1146193;-81
2021/10/18 17:59:31;;;;;;;92.08;43.90;;;;;;;10.73;100.00;101461.40;5242912;55;1145364;-83
2021/10/18 18:04:39;;;;;;;171.93;82.00;;;;;;;10.76;100.00;101460.73;5138424;56;1145440;-81
2021/10/18 18:09:44;;;;;;;141.53;63.83;;;;;;;10.78;100.00;101468.59;5228894;56;1147366;-78
2021/10/18 18:14:50;;;;;;;51.60;23.33;;;;;;;10.80;100.00;101467.55;5145224;56;1147483;-77
2021/10/18 18:19:56;;;;;;;56.20;36.10;;;;;;;10.80;100.00;101464.05;5208366;56;1144683;-78
2021/10/18 18:25:04;;;;;;;47.57;23.53;;;;;;;10.82;100.00;101471.42;5092482;56;1145301;-79
2021/10/18 18:30:14;;;;;;;38.80;22.30;;;;;;;10.80;100.00;101472.84;5223563;55;1145274;-86
2021/10/18 18:35:20;;;;;;;41.70;19.93;;;;;;;10.79;100.00;101476.91;5120472;56;1145716;-79
2021/10/18 18:40:26;;;;;;;36.70;17.33;;;;;;;10.80;100.00;101484.75;5131773;57;1143272;-78
2021/10/18 18:45:32;;;;;;;80.83;29.50;;;;;;;10.79;100.00;101485.69;5148344;56;1143206;-81
2021/10/18 18:50:38;;;;;;;52.50;23.40;;;;;;;10.79;100.00;101488.34;5102130;57;1143308;-79
2021/10/18 18:55:44;;;;;;;63.67;28.93;;;;;;;10.80;100.00;101486.07;5144140;56;1143551;-77
2021/10/18 19:00:50;;;;;;;46.73;23.20;;;;;;;10.79;100.00;101486.16;5108160;57;1143404;-79
2021/10/18 19:05:56;;;;;;;41.30;20.57;;;;;;;10.84;100.00;101485.41;5151031;56;1143324;-79
2021/10/18 19:11:02;;;;;;;43.60;22.48;;;;;;;10.87;100.00;101487.36;5177858;56;1143541;-81
2021/10/18 19:16:08;;;;;;;39.13;22.40;;;;;;;10.89;100.00;101490.77;5089642;57;1143272;-82
2021/10/18 19:21:13;;;;;;;42.17;22.43;;;;;;;10.90;100.00;101488.50;5057204;57;1143526;-82
2021/10/18 19:26:19;;;;;;;21.93;12.07;;;;;;;10.88;100.00;101493.03;5139761;56;1143191;-82
2021/10/18 19:31:26;;;;;;;33.47;15.70;;;;;;;10.89;100.00;101493.89;5111884;57;1143311;-81
2021/10/18 19:36:31;;;;;;;42.27;20.13;;;;;;;10.96;100.00;101503.16;5062062;57;1143494;-80
2021/10/18 19:41:37;;;;;;;28.30;13.00;;;;;;;11.00;100.00;101505.14;5069873;57;1143283;-82
2021/10/18 19:46:43;;;;;;;31.70;16.57;;;;;;;10.96;100.00;101513.73;5212385;56;1143496;-82
2021/10/18 19:51:49;;;;;;;43.30;18.93;;;;;;;10.94;100.00;101528.86;5089443;57;1143308;-78
2021/10/18 19:56:55;;;;;;;38.77;17.17;;;;;;;11.03;100.00;101524.30;5066278;57;1143810;-79
2021/10/18 20:02:01;;;;;;;40.97;18.17;;;;;;;11.11;100.00;101526.00;5103751;57;1143362;-83
2021/10/18 20:07:07;;;;;;;33.23;16.67;;;;;;;11.16;100.00;101530.98;5054594;57;1143150;-79
2021/10/18 20:12:13;;;;;;;35.07;17.43;;;;;;;11.23;100.00;101534.95;5121834;57;1143340;-77
2021/10/18 20:17:20;;;;;;;56.47;26.10;;;;;;;11.23;100.00;101540.25;5098549;57;1141223;-85
2021/10/18 20:22:26;;;;;;;65.10;29.67;;;;;;;11.26;100.00;101536.09;5145794;56;1145248;-84
2021/10/18 20:27:32;;;;;;;57.62;26.45;;;;;;;11.23;100.00;101549.52;5237801;55;1145519;-83
2021/10/18 20:32:37;;;;;;;67.43;31.60;;;;;;;11.22;100.00;101545.16;5076119;57;1145394;-80
2021/10/18 20:37:43;;;;;;;71.47;31.60;;;;;;;11.20;100.00;101554.53;5093064;57;1145255;-78
2021/10/18 20:42:49;;;;;;;54.33;27.60;;;;;;;11.23;100.00;101552.16;5094987;56;1145343;-84
2021/10/18 20:47:55;;;;;;;79.03;35.57;;;;;;;11.22;100.00;101555.76;5111266;57;1145364;-82
2021/10/18 20:53:01;;;;;;;69.80;30.63;;;;;;;11.18;100.00;101560.86;5083693;57;1145476;-81
2021/10/18 20:58:07;;;;;;;94.73;51.80;;;;;;;11.17;100.00;101551.22;5111719;56;1145506;-78
2021/10/18 21:03:14;;;;;;;48.83;25.63;;;;;;;11.15;100.00;101557.93;5079551;57;1145232;-82
2021/10/18 21:08:20;;;;;;;62.73;36.73;;;;;;;11.18;100.00;101562.19;5128727;56;1145505;-79
2021/10/18 21:13:26;;;;;;;65.37;34.37;;;;;;;11.09;100.00;101575.55;5069246;57;1145317;-80
2021/10/18 21:18:32;;;;;;;63.03;31.77;;;;;;;10.97;100.00;101578.12;5086444;57;1145393;-82
2021/10/18 21:23:37;;;;;;;53.43;29.90;;;;;;;10.99;100.00;101572.26;5176413;56;1145322;-79
2021/10/18 21:28:43;;;;;;;55.13;30.90;;;;;;;11.01;100.00;101567.22;4993387;57;1145672;-79
2021/10/18 21:33:49;;;;;;;46.97;25.40;;;;;;;11.06;100.00;101564.30;5063075;57;1145309;-81
2021/10/18 21:38:55;;;;;;;32.10;19.90;;;;;;;11.06;100.00;101549.26;4964063;58;1145286;-83
2021/10/18 21:44:01;;;;;;;30.50;16.23;;;;;;;11.01;100.00;101542.07;4966547;58;1145245;-78
2021/10/18 21:49:07;;;;;;;33.40;16.23;;;;;;;11.00;100.00;101550.14;4981180;58;1145338;-83
2021/10/18 21:54:13;;;;;;;28.70;15.70;;;;;;;11.03;100.00;101560.03;4968154;58;1145214;-82
2021/10/18 21:59:19;;;;;;;29.83;16.20;;;;;;;11.10;100.00;101549.92;4974999;58;1145314;-81
2021/10/18 22:04:24;;;;;;;37.57;16.90;;;;;;;11.09;100.00;101545.09;5054895;57;1145341;-76
2021/10/18 22:09:30;;;;;;;25.70;13.68;;;;;;;11.08;100.00;101545.20;4986389;58;1145310;-81
2021/10/18 22:14:36;;;;;;;25.87;12.30;;;;;;;11.06;100.00;101559.00;5067282;57;1145334;-81
2021/10/18 22:19:43;;;;;;;22.93;11.90;;;;;;;11.05;100.00;101549.35;4964651;58;1145465;-79
2021/10/18 22:24:49;;;;;;;30.03;15.53;;;;;;;11.05;100.00;101549.35;5076099;57;1145378;-78
2021/10/18 22:29:55;;;;;;;52.13;21.80;;;;;;;11.07;100.00;101554.93;5041001;57;1145540;-84
2021/10/18 22:35:01;;;;;;;67.63;27.17;;;;;;;11.07;100.00;101551.44;5200544;56;1145502;-80
2021/10/18 22:40:09;;;;;;;45.97;21.63;;;;;;;11.05;100.00;101545.37;5051464;57;1145474;-83
2021/10/18 22:45:16;;;;;;;75.90;31.17;;;;;;;11.00;100.00;101552.28;5051189;57;1145382;-79
2021/10/18 22:50:22;;;;;;;31.93;16.60;;;;;;;10.96;100.00;101552.59;5074214;57;1145442;-81
2021/10/18 22:55:28;;;;;;;47.93;16.70;;;;;;;10.90;100.00;101553.34;5140647;56;1145269;-83
2021/10/18 23:00:34;;;;;;;59.50;23.10;;;;;;;10.88;100.00;101555.23;5109937;57;1145341;-81
2021/10/18 23:05:40;;;;;;;52.60;21.87;;;;;;;10.88;100.00;101547.29;4981878;58;1145392;-78
2021/10/18 23:10:46;;;;;;;40.33;19.43;;;;;;;10.85;100.00;101551.45;5094380;57;1145363;-81
2021/10/18 23:15:53;;;;;;;38.05;15.90;;;;;;;10.84;100.00;101544.95;5020979;58;1145533;-82
2021/10/18 23:20:58;;;;;;;36.03;12.07;;;;;;;10.84;100.00;101551.09;5086507;57;1145275;-85
2021/10/18 23:26:04;;;;;;;21.70;11.17;;;;;;;10.85;100.00;101551.91;5049403;57;1145458;-81
2021/10/18 23:31:13;;;;;;;54.53;21.23;;;;;;;10.83;100.00;101548.55;5131960;56;1145379;-80
2021/10/18 23:36:18;;;;;;;43.68;18.48;;;;;;;10.78;100.00;101551.47;5018767;58;1145597;-82
2021/10/18 23:41:24;;;;;;;26.37;13.32;;;;;;;10.76;100.00;101544.09;5094847;57;1145541;-80
2021/10/18 23:46:30;;;;;;;16.53;9.80;;;;;;;10.62;100.00;101555.14;5087987;57;1143278;-78
2021/10/18 23:51:35;;;;;;;15.97;9.67;;;;;;;10.57;100.00;101556.27;5042325;58;1141129;-76